Time;durP1;ratioP1;P1;durP2;ratioP2;P2;SDS_P1;SDS_P2;PMS_P1;PMS_P2;Temp;Humidity;BMP_temperature;BMP_pressure;BME280_temperature;BME280_humidity;BME280_pressure;Samples;Min_cycle;Max_cycle;Signal;HPM_P1;HPM_P2
2023/01/17 00:01:32;;;;;;;3.28;1.83;;;2.80;98.60;;;;;;5024037;28;20076;-73
2023/01/17 00:12:09;;;;;;;3.60;1.80;;;2.80;98.80;;;;;;5027913;28;20037;-73
2023/01/17 00:14:35;;;;;;;4.05;2.00;;;2.70;98.80;;;;;;5024817;28;20030;-73
2023/01/17 00:17:00;;;;;;;2.13;1.70;;;2.80;98.90;;;;;;5027189;28;20040;-73
2023/01/17 01:34:02;;;;;;;8.77;5.05;;;3.00;99.60;;;;;;5024573;28;20048;-71
2023/01/17 01:36:28;;;;;;;9.82;4.95;;;3.00;99.60;;;;;;5031686;28;20025;-71
2023/01/17 01:38:53;;;;;;;7.38;4.88;;;3.00;99.70;;;;;;5029834;28;20026;-71
2023/01/17 01:41:19;;;;;;;8.43;5.70;;;3.00;99.70;;;;;;5024145;28;20041;-70
2023/01/17 01:43:48;;;;;;;8.90;6.10;;;3.10;99.70;;;;;;5021626;28;20418;-70
2023/01/17 01:46:19;;;;;;;10.52;6.32;;;3.00;99.70;;;;;;5030502;28;20524;-71
2023/01/17 01:48:47;;;;;;;11.48;6.55;;;3.10;99.70;;;;;;5028520;28;20104;-72
2023/01/17 01:51:20;;;;;;;9.55;6.28;;;3.10;99.80;;;;;;5026697;28;20039;-71
2023/01/17 01:53:50;;;;;;;12.20;6.88;;;3.10;99.80;;;;;;5025358;28;20036;-71
2023/01/17 01:56:17;;;;;;;10.05;6.75;;;3.10;99.80;;;;;;5028183;28;20049;-71
2023/01/17 01:58:47;;;;;;;10.73;7.05;;;3.10;99.80;;;;;;5027072;28;20450;-71
2023/01/17 02:01:14;;;;;;;14.15;7.85;;;3.10;99.80;;;;;;5028821;28;20045;-72
2023/01/17 02:03:40;;;;;;;12.32;7.63;;;3.10;99.80;;;;;;5027061;28;20033;-71
2023/01/17 02:06:24;;;;;;;12.30;7.22;;;3.20;99.80;;;;;;5027271;28;20029;-71
2023/01/17 02:08:50;;;;;;;11.57;7.45;;;3.20;99.80;;;;;;5026028;28;20120;-71
2023/01/17 02:11:16;;;;;;;12.80;8.00;;;3.10;99.80;;;;;;5030468;28;20036;-70
2023/01/17 02:13:42;;;;;;;13.30;8.23;;;3.20;99.90;;;;;;5024839;28;20022;-71
2023/01/17 02:16:20;;;;;;;13.10;8.27;;;3.20;99.90;;;;;;5029357;28;20021;-70
2023/01/17 02:18:58;;;;;;;12.98;8.43;;;3.20;99.90;;;;;;5026099;28;20361;-72
2023/01/17 02:21:40;;;;;;;13.75;9.05;;;3.20;99.90;;;;;;5028708;28;20103;-71
2023/01/17 02:24:09;;;;;;;15.18;9.23;;;3.30;99.90;;;;;;5028157;28;20033;-71
2023/01/17 02:27:03;;;;;;;14.88;9.50;;;3.30;99.90;;;;;;5027424;28;20037;-70
2023/01/17 02:29:40;;;;;;;16.20;9.32;;;3.30;99.90;;;;;;5028707;28;20121;-71
2023/01/17 02:32:33;;;;;;;15.07;9.23;;;3.30;99.90;;;;;;5030489;28;20025;-71
2023/01/17 02:35:01;;;;;;;15.90;8.65;;;3.30;99.90;;;;;;5025395;28;20064;-71
2023/01/17 02:37:54;;;;;;;14.93;9.30;;;3.30;99.90;;;;;;5027688;28;20484;-71
2023/01/17 02:41:01;;;;;;;14.77;9.00;;;3.30;99.80;;;;;;5023105;28;20029;-70
2023/01/17 02:43:27;;;;;;;15.52;8.52;;;3.20;99.80;;;;;;5005436;28;20026;-71
2023/01/17 02:45:53;;;;;;;16.88;9.57;;;3.30;99.70;;;;;;5008006;28;20196;-71
2023/01/17 02:48:23;;;;;;;14.30;9.27;;;3.30;99.80;;;;;;5016023;28;20460;-71
2023/01/17 02:51:10;;;;;;;16.30;10.02;;;3.30;99.80;;;;;;5028781;28;20071;-71
2023/01/17 02:54:02;;;;;;;17.75;10.07;;;3.30;99.80;;;;;;5028751;28;20025;-71
2023/01/17 02:56:41;;;;;;;20.90;11.23;;;3.40;99.80;;;;;;5024878;28;20029;-70
2023/01/17 02:59:20;;;;;;;19.67;10.68;;;3.40;99.80;;;;;;5026853;28;20022;-70
2023/01/17 03:02:12;;;;;;;17.20;8.98;;;3.40;99.90;;;;;;5027104;28;20484;-70
2023/01/17 03:04:58;;;;;;;11.57;6.63;;;3.40;99.70;;;;;;5028454;28;20211;-71
2023/01/17 03:07:26;;;;;;;11.40;6.35;;;3.20;99.20;;;;;;5022720;28;20029;-72
2023/01/17 03:09:58;;;;;;;9.90;5.63;;;3.20;99.10;;;;;;5022626;28;20021;-71
2023/01/17 03:12:29;;;;;;;10.48;5.80;;;3.10;99.00;;;;;;5027523;28;20057;-71
2023/01/17 03:14:55;;;;;;;11.85;6.25;;;3.00;99.00;;;;;;5029079;28;20029;-71
2023/01/17 03:17:23;;;;;;;11.18;5.90;;;3.00;99.00;;;;;;5020493;28;20033;-71
2023/01/17 03:19:49;;;;;;;11.10;6.13;;;3.00;99.00;;;;;;5022320;28;20029;-71
2023/01/17 03:22:14;;;;;;;12.88;7.20;;;3.00;99.10;;;;;;5024305;28;20060;-71
2023/01/17 03:24:40;;;;;;;13.18;6.53;;;3.00;99.20;;;;;;5022025;28;20477;-72
2023/01/17 03:27:05;;;;;;;14.60;7.72;;;2.90;99.10;;;;;;5028090;28;20424;-71
2023/01/17 03:29:31;;;;;;;13.00;6.85;;;3.00;99.00;;;;;;5029772;28;20025;-70
2023/01/17 03:31:57;;;;;;;12.93;6.88;;;2.90;99.00;;;;;;5028364;28;20037;-72
2023/01/17 03:34:22;;;;;;;12.93;7.15;;;2.90;99.10;;;;;;5029796;28;20021;-71
2023/01/17 03:36:48;;;;;;;12.52;6.88;;;2.90;99.10;;;;;;5027987;28;20025;-72
2023/01/17 03:39:14;;;;;;;12.05;6.38;;;2.90;99.10;;;;;;5024666;28;20110;-71
2023/01/17 03:41:39;;;;;;;12.23;6.50;;;2.90;99.10;;;;;;5025284;28;20029;-71
2023/01/17 03:44:04;;;;;;;14.05;6.55;;;2.90;99.10;;;;;;5025502;28;20525;-71
2023/01/17 03:46:31;;;;;;;13.95;6.97;;;2.80;99.10;;;;;;5026677;28;20029;-71
2023/01/17 03:48:56;;;;;;;14.50;7.28;;;2.80;99.10;;;;;;5026586;28;20109;-72
2023/01/17 03:51:22;;;;;;;15.63;6.97;;;2.80;99.20;;;;;;5029035;28;20105;-71
2023/01/17 03:53:49;;;;;;;15.88;7.30;;;2.80;99.20;;;;;;5027395;28;20044;-71
2023/01/17 03:56:15;;;;;;;13.18;6.75;;;2.80;99.30;;;;;;5019685;28;20032;-71
2023/01/17 03:58:40;;;;;;;15.73;8.07;;;2.80;99.40;;;;;;5021944;28;20117;-71
2023/01/17 04:01:06;;;;;;;17.45;8.18;;;2.80;99.40;;;;;;5021586;28;20458;-71
2023/01/17 04:03:32;;;;;;;19.08;8.55;;;2.80;99.50;;;;;;5019310;28;20099;-71
2023/01/17 04:05:57;;;;;;;13.55;7.32;;;2.80;99.50;;;;;;5028919;28;20080;-71
2023/01/17 04:08:23;;;;;;;16.70;8.00;;;2.90;99.60;;;;;;5025805;28;20449;-72
2023/01/17 04:10:48;;;;;;;14.90;7.43;;;2.80;99.70;;;;;;5025867;28;20037;-71
2023/01/17 04:13:15;;;;;;;15.02;7.68;;;2.80;99.80;;;;;;5023329;28;20061;-72
2023/01/17 04:15:41;;;;;;;13.25;7.75;;;2.90;99.80;;;;;;5028062;28;20108;-71
2023/01/17 04:18:09;;;;;;;13.02;6.97;;;2.90;99.80;;;;;;5024782;28;20045;-71
2023/01/17 04:20:38;;;;;;;12.38;7.10;;;2.90;99.80;;;;;;5025353;28;20036;-71
2023/01/17 04:23:04;;;;;;;13.85;7.07;;;2.90;99.80;;;;;;5029644;28;20050;-72
2023/01/17 04:25:30;;;;;;;12.18;6.57;;;2.90;99.70;;;;;;5030345;28;20029;-71
2023/01/17 04:27:57;;;;;;;12.63;6.88;;;2.90;99.70;;;;;;5033864;28;20385;-71
2023/01/17 04:30:22;;;;;;;12.68;7.30;;;2.90;99.70;;;;;;5034905;28;20022;-72
2023/01/17 04:32:48;;;;;;;13.35;7.63;;;3.00;99.70;;;;;;5030752;28;20030;-71
2023/01/17 04:35:14;;;;;;;13.85;6.22;;;3.00;99.70;;;;;;5031711;28;20478;-72
2023/01/17 04:37:40;;;;;;;9.52;5.72;;;3.00;99.70;;;;;;5032403;28;20018;-72
2023/01/17 04:40:06;;;;;;;12.40;6.97;;;3.00;99.70;;;;;;5029566;28;20033;-71
2023/01/17 04:42:31;;;;;;;14.68;7.13;;;3.00;99.70;;;;;;5033134;28;20087;-71
2023/01/17 04:44:57;;;;;;;9.93;5.97;;;3.00;99.70;;;;;;5035411;28;20350;-71
2023/01/17 04:47:22;;;;;;;10.75;6.28;;;3.00;99.70;;;;;;5030164;28;20464;-72
2023/01/17 04:49:48;;;;;;;10.88;6.15;;;3.00;99.80;;;;;;5033003;28;20023;-71
2023/01/17 04:52:14;;;;;;;9.65;5.25;;;3.00;99.80;;;;;;5031708;28;20033;-71
2023/01/17 04:54:39;;;;;;;8.23;5.20;;;3.00;99.80;;;;;;5032013;28;20079;-71
2023/01/17 04:57:05;;;;;;;8.90;5.28;;;3.00;99.70;;;;;;5024033;28;20083;-71
2023/01/17 04:59:30;;;;;;;9.68;4.32;;;3.00;99.70;;;;;;5028670;28;20037;-71
2023/01/17 05:01:56;;;;;;;7.72;3.88;;;3.00;99.70;;;;;;5029835;28;20029;-72
2023/01/17 05:04:21;;;;;;;6.80;3.60;;;3.00;99.60;;;;;;5032807;28;20030;-71
2023/01/17 05:06:47;;;;;;;3.55;2.25;;;2.90;99.50;;;;;;5028004;28;20108;-71
2023/01/17 05:09:12;;;;;;;5.05;2.50;;;2.90;99.50;;;;;;5027334;28;20099;-72
2023/01/17 05:11:38;;;;;;;3.40;1.95;;;2.90;99.60;;;;;;5030724;28;20034;-72
2023/01/17 05:14:03;;;;;;;3.65;1.60;;;2.80;99.50;;;;;;5026898;28;20118;-72
2023/01/17 05:16:29;;;;;;;1.45;1.05;;;2.80;99.50;;;;;;5030752;28;20369;-72
2023/01/17 05:18:54;;;;;;;1.98;1.15;;;2.80;99.30;;;;;;5026086;28;20099;-71
2023/01/17 05:21:20;;;;;;;1.73;0.65;;;2.80;99.20;;;;;;5019142;28;20466;-72
2023/01/17 05:23:46;;;;;;;0.85;0.70;;;2.80;99.00;;;;;;5030647;28;20029;-71
2023/01/17 05:26:12;;;;;;;1.58;0.90;;;2.80;98.90;;;;;;5030603;28;20025;-71
2023/01/17 05:28:37;;;;;;;1.50;0.60;;;2.70;98.80;;;;;;5028334;28;20036;-70
2023/01/17 05:31:03;;;;;;;1.38;0.60;;;2.70;98.80;;;;;;5031937;28;20038;-73
2023/01/17 05:33:28;;;;;;;1.52;0.50;;;2.70;98.70;;;;;;5029198;28;20021;-73
2023/01/17 05:35:54;;;;;;;0.50;0.50;;;2.70;98.50;;;;;;5031279;28;20453;-73
2023/01/17 05:38:19;;;;;;;0.98;0.63;;;2.70;98.60;;;;;;5028629;28;20144;-73
2023/01/17 05:40:45;;;;;;;2.92;0.68;;;2.70;98.70;;;;;;5029553;28;20362;-73
2023/01/17 05:43:10;;;;;;;0.68;0.50;;;2.70;98.80;;;;;;5029668;28;20033;-73
2023/01/17 05:45:36;;;;;;;1.27;0.60;;;2.70;98.70;;;;;;5030372;28;20030;-73
2023/01/17 05:48:01;;;;;;;1.85;0.50;;;2.70;98.60;;;;;;5025618;28;20041;-75
2023/01/17 05:50:31;;;;;;;3.60;0.47;;;2.70;98.70;;;;;;5030079;28;20030;-75
2023/01/17 05:52:59;;;;;;;0.40;0.40;;;2.60;98.70;;;;;;5031428;28;20029;-75
2023/01/17 05:55:26;;;;;;;1.10;0.40;;;2.60;98.80;;;;;;5025489;28;20105;-75
2023/01/17 05:57:52;;;;;;;3.53;0.45;;;2.60;98.30;;;;;;5030545;28;20107;-73
2023/01/17 06:00:18;;;;;;;2.72;0.45;;;2.60;97.80;;;;;;5022486;28;20056;-73
2023/01/17 06:02:44;;;;;;;2.70;0.45;;;2.60;97.30;;;;;;5028531;28;20045;-73
2023/01/17 06:05:10;;;;;;;2.38;0.50;;;2.60;97.20;;;;;;5024565;28;20140;-73
2023/01/17 06:07:36;;;;;;;2.03;0.40;;;2.60;97.00;;;;;;5030195;28;20108;-73
2023/01/17 06:10:01;;;;;;;2.28;0.50;;;2.60;96.90;;;;;;5023756;28;20029;-74
2023/01/17 06:12:27;;;;;;;4.72;0.63;;;2.50;97.20;;;;;;5023886;28;20480;-74
2023/01/17 06:14:52;;;;;;;2.28;0.40;;;2.50;97.30;;;;;;5022065;28;20021;-74
2023/01/17 06:17:18;;;;;;;2.80;0.68;;;2.50;97.50;;;;;;5024879;28;20060;-74
2023/01/17 06:19:44;;;;;;;3.78;0.60;;;2.50;97.80;;;;;;5027003;28;20441;-74
2023/01/17 06:22:09;;;;;;;3.90;0.52;;;2.50;97.80;;;;;;5030485;28;20060;-75
2023/01/17 06:24:35;;;;;;;3.35;0.70;;;2.50;98.00;;;;;;5027321;28;20462;-74
2023/01/17 06:27:00;;;;;;;3.63;0.55;;;2.50;98.10;;;;;;5026059;28;20052;-75
2023/01/17 06:29:26;;;;;;;2.53;0.57;;;2.40;98.00;;;;;;5027405;28;20036;-74
2023/01/17 06:31:51;;;;;;;6.65;0.70;;;2.40;97.90;;;;;;5030660;28;20052;-74
2023/01/17 06:34:17;;;;;;;1.38;0.50;;;2.40;97.70;;;;;;5027629;28;20025;-74
2023/01/17 06:36:43;;;;;;;3.85;0.98;;;2.40;97.70;;;;;;5028300;28;20265;-73
2023/01/17 06:39:11;;;;;;;9.02;1.17;;;2.40;97.80;;;;;;5026061;28;20069;-74
2023/01/17 06:41:37;;;;;;;3.40;0.80;;;2.40;97.90;;;;;;5020311;28;20458;-73
2023/01/17 06:44:02;;;;;;;5.60;1.17;;;2.30;98.00;;;;;;5021011;28;20041;-73
2023/01/17 06:46:28;;;;;;;1.75;0.60;;;2.40;98.00;;;;;;5030829;28;20029;-73
2023/01/17 06:48:54;;;;;;;5.82;0.88;;;2.30;98.00;;;;;;5027990;28;20100;-73
2023/01/17 06:51:19;;;;;;;3.88;1.00;;;2.30;98.00;;;;;;5027129;28;20112;-73
2023/01/17 06:53:47;;;;;;;5.18;0.90;;;2.30;98.00;;;;;;5027975;28;20108;-73
2023/01/17 06:56:13;;;;;;;4.93;0.95;;;2.30;98.00;;;;;;5026689;28;20468;-74
2023/01/17 06:58:38;;;;;;;3.45;1.08;;;2.30;98.00;;;;;;5029612;28;20037;-72
2023/01/17 07:01:08;;;;;;;6.30;1.08;;;2.20;97.90;;;;;;5027930;28;20453;-72
2023/01/17 07:03:34;;;;;;;3.65;0.98;;;2.20;97.90;;;;;;5029184;28;20068;-72
2023/01/17 07:06:01;;;;;;;3.38;0.90;;;2.20;97.90;;;;;;5029317;28;20049;-72
2023/01/17 07:08:26;;;;;;;6.50;1.55;;;2.20;97.90;;;;;;5022962;28;20036;-72
2023/01/17 07:10:57;;;;;;;6.25;1.08;;;2.30;97.80;;;;;;5029150;28;20393;-73
2023/01/17 07:13:22;;;;;;;3.55;1.13;;;2.20;98.00;;;;;;5024164;28;20112;-72
2023/01/17 07:15:48;;;;;;;7.95;1.35;;;2.20;98.20;;;;;;5021598;28;20132;-72
2023/01/17 07:18:15;;;;;;;4.63;1.20;;;2.10;98.30;;;;;;5023109;28;20508;-72
2023/01/17 07:20:42;;;;;;;4.85;1.13;;;2.20;98.50;;;;;;5021292;28;20032;-72
2023/01/17 07:23:08;;;;;;;5.13;1.10;;;2.20;98.50;;;;;;5020746;28;20033;-73
2023/01/17 07:25:33;;;;;;;5.90;1.20;;;2.10;98.50;;;;;;5023182;28;20432;-73
2023/01/17 07:27:59;;;;;;;6.68;1.27;;;2.10;98.60;;;;;;5027178;28;20041;-73
2023/01/17 07:30:25;;;;;;;3.70;0.93;;;2.10;98.80;;;;;;5022080;28;20569;-72
2023/01/17 07:32:52;;;;;;;10.45;0.88;;;2.10;98.90;;;;;;5021977;28;20171;-73
2023/01/17 07:35:18;;;;;;;9.25;0.95;;;2.20;98.90;;;;;;5029585;28;20550;-72
2023/01/17 07:37:48;;;;;;;5.13;1.00;;;2.20;98.80;;;;;;5023966;28;20041;-73
2023/01/17 07:40:16;;;;;;;7.00;1.00;;;2.20;98.90;;;;;;5024650;28;20036;-73
2023/01/17 07:42:42;;;;;;;4.40;0.55;;;2.10;98.60;;;;;;5027885;28;20029;-73
2023/01/17 07:45:08;;;;;;;2.28;0.57;;;1.90;98.20;;;;;;5027799;28;20029;-73
2023/01/17 07:47:34;;;;;;;4.40;0.70;;;1.80;98.30;;;;;;5026814;28;20037;-73
2023/01/17 07:50:00;;;;;;;0.55;0.30;;;1.80;98.30;;;;;;5029170;28;20040;-73
2023/01/17 07:52:26;;;;;;;3.92;0.50;;;1.70;98.10;;;;;;5027353;28;20037;-73
2023/01/17 07:54:52;;;;;;;1.90;0.50;;;1.70;98.20;;;;;;5028262;28;20378;-73
2023/01/17 07:57:17;;;;;;;4.47;0.40;;;1.70;98.10;;;;;;5025703;28;20098;-72
2023/01/17 07:59:43;;;;;;;9.38;1.10;;;1.70;97.90;;;;;;5026076;28;20116;-72
2023/01/17 08:02:17;;;;;;;5.75;0.75;;;1.70;97.90;;;;;;5022322;28;20048;-75
2023/01/17 08:04:43;;;;;;;2.95;0.90;;;1.70;98.00;;;;;;5024457;28;20478;-72
2023/01/17 08:07:08;;;;;;;9.00;0.75;;;1.60;98.10;;;;;;5022972;28;20045;-73
2023/01/17 08:09:34;;;;;;;3.85;0.98;;;1.60;98.30;;;;;;5027341;28;20112;-73
2023/01/17 08:12:00;;;;;;;6.72;2.30;;;1.70;98.60;;;;;;5030022;28;20029;-72
2023/01/17 08:14:25;;;;;;;4.22;2.10;;;1.70;98.80;;;;;;5027576;28;20424;-73
2023/01/17 08:16:52;;;;;;;7.93;3.15;;;1.70;98.90;;;;;;5031326;28;20477;-73
2023/01/17 08:19:17;;;;;;;10.25;4.45;;;1.70;99.00;;;;;;5027266;28;20033;-73
2023/01/17 08:21:43;;;;;;;13.05;4.53;;;1.80;99.00;;;;;;5029973;28;20061;-73
2023/01/17 08:24:12;;;;;;;10.23;4.78;;;1.80;99.00;;;;;;5027734;28;20427;-73
2023/01/17 08:26:38;;;;;;;10.40;4.75;;;1.80;99.00;;;;;;5029224;28;20044;-73
2023/01/17 08:29:04;;;;;;;9.40;4.53;;;1.80;99.00;;;;;;5030467;28;20038;-73
2023/01/17 08:31:32;;;;;;;10.90;3.38;;;1.90;98.90;;;;;;5029790;28;20100;-73
2023/01/17 08:33:57;;;;;;;8.57;2.97;;;1.80;98.70;;;;;;5023262;28;20022;-73
2023/01/17 08:36:27;;;;;;;12.13;3.58;;;1.90;98.70;;;;;;5023629;28;20063;-72
2023/01/17 08:38:53;;;;;;;8.07;3.60;;;1.90;98.70;;;;;;5030401;28;20036;-73
2023/01/17 08:41:20;;;;;;;10.48;3.17;;;2.00;98.70;;;;;;5019460;28;20026;-73
2023/01/17 08:43:49;;;;;;;5.40;2.42;;;2.00;98.50;;;;;;5030098;28;20028;-73
2023/01/17 08:46:15;;;;;;;9.20;2.97;;;2.00;98.40;;;;;;5028012;28;20036;-73
2023/01/17 08:48:41;;;;;;;10.38;3.17;;;2.10;98.00;;;;;;5028584;28;20095;-73
2023/01/17 08:51:07;;;;;;;13.27;3.40;;;2.00;97.90;;;;;;5029353;28;20033;-73
2023/01/17 08:53:32;;;;;;;7.30;3.22;;;2.10;97.90;;;;;;5029150;28;20033;-73
2023/01/17 08:55:59;;;;;;;8.07;3.65;;;2.10;97.80;;;;;;5030123;28;20043;-73
2023/01/17 08:58:27;;;;;;;7.13;2.67;;;2.10;97.70;;;;;;5028506;28;20080;-73
2023/01/17 09:00:52;;;;;;;11.13;3.17;;;2.10;97.70;;;;;;5028528;28;20109;-73
2023/01/17 09:03:18;;;;;;;7.63;2.88;;;2.10;97.60;;;;;;5028893;28;20112;-73
2023/01/17 09:05:43;;;;;;;12.93;2.95;;;2.10;97.40;;;;;;5029388;28;20087;-73
2023/01/17 09:08:09;;;;;;;6.65;2.60;;;2.10;97.40;;;;;;5030658;28;20033;-73
2023/01/17 09:10:34;;;;;;;11.25;2.92;;;2.10;97.60;;;;;;5030556;28;20462;-73
2023/01/17 09:13:00;;;;;;;8.88;2.72;;;2.10;97.50;;;;;;5028473;28;20462;-73
2023/01/17 09:15:25;;;;;;;11.63;2.50;;;2.10;97.50;;;;;;5033858;28;20080;-72
2023/01/17 09:17:54;;;;;;;12.05;2.17;;;2.10;97.50;;;;;;5031043;28;20064;-73
2023/01/17 09:20:20;;;;;;;7.90;2.25;;;2.10;97.60;;;;;;5027866;28;20049;-73
2023/01/17 09:22:46;;;;;;;9.20;2.35;;;2.10;97.50;;;;;;5032944;28;20084;-75
2023/01/17 09:25:11;;;;;;;6.97;2.10;;;2.10;97.40;;;;;;5032375;28;20042;-75
2023/01/17 09:27:36;;;;;;;8.07;2.35;;;2.10;97.40;;;;;;5032338;28;20030;-74
2023/01/17 09:30:03;;;;;;;6.10;2.00;;;2.10;97.50;;;;;;5032223;28;20103;-75
2023/01/17 09:32:28;;;;;;;6.40;2.20;;;2.10;97.40;;;;;;5030087;28;20448;-76
2023/01/17 09:34:56;;;;;;;9.30;2.38;;;2.10;97.30;;;;;;5027110;28;20033;-76
2023/01/17 09:37:22;;;;;;;6.18;1.90;;;2.10;97.00;;;;;;5026739;28;20038;-76
2023/01/17 09:39:47;;;;;;;6.30;1.90;;;2.20;97.00;;;;;;5028964;28;20030;-76
2023/01/17 09:42:33;;;;;;;7.20;2.55;;;2.20;96.70;;;;;;5031497;28;20041;-76
2023/01/17 09:44:58;;;;;;;4.70;1.70;;;2.20;96.70;;;;;;5033162;28;20032;-76
2023/01/17 09:47:43;;;;;;;5.22;1.70;;;2.20;96.30;;;;;;5032838;28;20037;-76
2023/01/17 09:50:30;;;;;;;9.85;2.17;;;2.20;96.30;;;;;;5030728;28;20037;-76
2023/01/17 09:53:19;;;;;;;3.88;1.00;;;2.30;96.10;;;;;;5029740;28;20505;-77
2023/01/17 09:56:05;;;;;;;6.03;1.42;;;2.40;95.00;;;;;;5019747;28;20022;-76
2023/01/17 09:58:42;;;;;;;5.75;1.23;;;2.60;95.00;;;;;;5032253;28;20469;-76
2023/01/17 10:01:33;;;;;;;5.45;1.58;;;2.60;94.50;;;;;;5029595;28;20087;-76
2023/01/17 10:04:11;;;;;;;;;;;2.60;94.60;;;;;;5022662;28;20038;-76
2023/01/17 10:06:51;;;;;;;4.32;1.13;;;2.70;93.80;;;;;;5026561;28;19912;-76
2023/01/17 10:09:53;;;;;;;6.35;1.65;;;2.70;93.40;;;;;;5032012;28;20057;-76
2023/01/17 10:12:48;;;;;;;6.85;1.20;;;2.60;93.70;;;;;;5028858;28;20029;-76
2023/01/17 10:15:41;;;;;;;5.75;1.30;;;2.60;93.40;;;;;;5029563;28;20108;-76
2023/01/17 10:18:51;;;;;;;4.55;1.05;;;2.70;93.00;;;;;;5028026;28;20029;-76
2023/01/17 10:21:29;;;;;;;7.55;1.02;;;2.80;92.80;;;;;;5031704;28;20083;-76
2023/01/17 10:24:23;;;;;;;2.88;1.10;;;2.90;92.40;;;;;;5033621;28;20025;-77
2023/01/17 10:26:55;;;;;;;4.80;1.33;;;3.00;91.70;;;;;;5020270;28;20436;-77
2023/01/17 10:29:21;;;;;;;6.95;1.10;;;3.00;91.60;;;;;;5032857;28;20031;-77
2023/01/17 10:31:59;;;;;;;7.70;1.02;;;3.00;90.70;;;;;;5031058;28;20029;-77
2023/01/17 10:34:36;;;;;;;5.60;0.85;;;3.10;91.70;;;;;;5029393;28;20037;-76
2023/01/17 10:37:13;;;;;;;7.68;1.02;;;3.10;91.20;;;;;;5024494;28;20047;-77
2023/01/17 10:39:39;;;;;;;6.80;0.90;;;3.20;91.00;;;;;;5028392;28;20025;-77
2023/01/17 10:42:22;;;;;;;4.38;0.93;;;3.20;90.30;;;;;;5031441;28;20052;-76
2023/01/17 10:45:27;;;;;;;3.22;0.80;;;3.20;89.30;;;;;;5033402;28;20025;-77
2023/01/17 10:48:15;;;;;;;6.15;0.80;;;3.10;89.90;;;;;;5012726;28;20220;-77
2023/01/17 10:50:58;;;;;;;2.25;0.70;;;3.20;88.40;;;;;;5004305;28;20031;-76
2023/01/17 10:54:01;;;;;;;4.95;1.20;;;3.20;87.90;;;;;;5019178;28;20049;-77
2023/01/17 10:56:28;;;;;;;4.13;0.85;;;3.30;88.70;;;;;;5030321;28;20049;-77
2023/01/17 10:59:16;;;;;;;3.25;0.70;;;3.30;88.20;;;;;;5031762;28;20045;-76
2023/01/17 11:01:41;;;;;;;2.35;0.90;;;3.30;87.70;;;;;;5032304;28;20381;-77
2023/01/17 11:04:35;;;;;;;4.10;0.82;;;3.40;87.80;;;;;;5029201;28;20121;-77
2023/01/17 11:07:14;;;;;;;3.50;0.70;;;3.40;88.10;;;;;;5022180;28;20048;-77
2023/01/17 11:09:44;;;;;;;5.70;0.90;;;3.40;87.20;;;;;;5030256;28;20037;-77
2023/01/17 11:12:32;;;;;;;3.92;0.80;;;3.40;87.10;;;;;;5029796;28;20033;-77
2023/01/17 11:15:02;;;;;;;5.32;0.70;;;3.50;87.10;;;;;;5032355;28;20021;-77
2023/01/17 11:17:29;;;;;;;3.90;1.00;;;3.60;86.70;;;;;;5035163;28;20030;-77
2023/01/17 11:20:07;;;;;;;5.28;1.38;;;3.60;86.90;;;;;;5029547;28;20052;-77
2023/01/17 11:22:33;;;;;;;4.75;0.93;;;3.70;87.70;;;;;;5019741;28;20061;-76
2023/01/17 11:25:00;;;;;;;3.42;0.93;;;3.60;86.50;;;;;;5031495;28;20022;-76
2023/01/17 11:28:02;;;;;;;2.97;0.77;;;3.80;86.40;;;;;;5031893;28;20128;-77
2023/01/17 11:30:28;;;;;;;3.85;0.93;;;3.80;85.60;;;;;;5031507;28;20059;-77
2023/01/17 11:33:05;;;;;;;4.13;0.80;;;3.80;84.80;;;;;;5028458;28;20052;-77
2023/01/17 11:35:33;;;;;;;3.40;0.70;;;3.70;83.70;;;;;;5030422;28;20013;-77
2023/01/17 11:38:01;;;;;;;4.28;1.08;;;3.70;83.40;;;;;;5029422;28;20067;-77
2023/01/17 11:40:48;;;;;;;2.97;0.70;;;3.80;84.10;;;;;;5031521;28;20017;-77
2023/01/17 11:43:25;;;;;;;2.67;0.70;;;3.90;84.00;;;;;;5030916;28;20025;-75
2023/01/17 11:46:03;;;;;;;2.45;0.82;;;4.10;84.20;;;;;;5027179;28;20022;-74
2023/01/17 11:48:37;;;;;;;3.42;0.80;;;3.80;84.60;;;;;;5021303;28;20033;-74
2023/01/17 11:51:16;;;;;;;7.07;0.75;;;3.40;84.70;;;;;;5030064;28;20493;-74
2023/01/17 11:53:46;;;;;;;4.07;0.77;;;3.50;85.20;;;;;;5032019;28;20021;-74
2023/01/17 11:56:32;;;;;;;1.63;0.60;;;3.50;84.30;;;;;;5031219;28;20056;-74
2023/01/17 11:59:20;;;;;;;5.82;0.90;;;3.40;84.90;;;;;;5031023;28;20037;-74
2023/01/17 12:02:14;;;;;;;3.90;0.80;;;3.30;84.50;;;;;;5021557;28;20071;-74
2023/01/17 12:04:44;;;;;;;8.10;1.13;;;3.50;83.80;;;;;;5026045;28;20021;-73
2023/01/17 12:07:46;;;;;;;2.30;0.77;;;3.40;83.70;;;;;;5022622;28;20026;-74
2023/01/17 12:10:25;;;;;;;5.53;0.88;;;3.40;84.90;;;;;;5031099;28;20021;-73
2023/01/17 12:16:30;;;;;;;3.83;0.85;;;3.20;84.20;;;;;;5019697;28;20071;-73
2023/01/17 12:19:20;;;;;;;4.78;1.10;;;3.20;84.70;;;;;;5028245;28;20030;-74
2023/01/17 12:22:04;;;;;;;4.00;0.65;;;3.20;84.70;;;;;;5028871;28;20046;-74
2023/01/17 12:24:57;;;;;;;4.15;0.75;;;3.20;85.30;;;;;;5030978;28;20036;-74
2023/01/17 12:27:41;;;;;;;3.42;1.08;;;3.30;85.10;;;;;;5021674;28;20025;-74
2023/01/17 12:30:29;;;;;;;5.05;0.80;;;3.30;84.30;;;;;;5028459;28;20029;-73
2023/01/17 12:33:07;;;;;;;6.90;0.90;;;3.30;84.50;;;;;;5025203;28;20061;-73
2023/01/17 12:35:55;;;;;;;3.40;0.52;;;3.40;85.40;;;;;;5020293;28;20103;-74
2023/01/17 12:38:38;;;;;;;4.90;1.10;;;3.20;85.10;;;;;;5028290;28;20028;-73
2023/01/17 12:41:30;;;;;;;7.85;1.10;;;3.20;85.60;;;;;;5027355;28;20028;-74
2023/01/17 12:43:59;;;;;;;5.97;1.00;;;3.10;85.40;;;;;;5025397;28;20025;-76
2023/01/17 12:46:41;;;;;;;1.92;0.70;;;3.10;85.20;;;;;;5030899;28;20025;-76
2023/01/17 12:49:37;;;;;;;5.78;0.80;;;3.10;84.80;;;;;;5030036;28;20448;-76
2023/01/17 12:52:11;;;;;;;5.28;1.20;;;3.00;85.20;;;;;;5017648;28;20089;-75
2023/01/17 12:54:47;;;;;;;5.57;1.25;;;3.00;85.20;;;;;;5020999;28;20053;-75
2023/01/17 12:57:43;;;;;;;5.43;1.05;;;3.10;85.20;;;;;;5031603;28;20469;-76
2023/01/17 13:00:18;;;;;;;3.60;0.75;;;3.20;85.00;;;;;;5020433;28;20034;-75
2023/01/17 13:03:05;;;;;;;3.58;1.23;;;3.30;85.10;;;;;;5032540;28;20034;-76
2023/01/17 13:05:39;;;;;;;3.08;0.82;;;3.40;84.80;;;;;;5028602;28;20069;-75
2023/01/17 13:08:39;;;;;;;4.53;0.90;;;3.50;83.90;;;;;;5023580;28;20025;-76
2023/01/17 13:11:27;;;;;;;4.05;0.80;;;3.50;83.60;;;;;;5033645;28;20044;-76
2023/01/17 13:13:56;;;;;;;6.25;0.77;;;3.60;83.60;;;;;;5031561;28;20363;-75
2023/01/17 13:16:43;;;;;;;1.27;0.68;;;3.70;83.60;;;;;;5027438;28;20472;-76
2023/01/17 13:19:19;;;;;;;3.47;0.82;;;3.80;82.60;;;;;;5031760;28;20056;-76
2023/01/17 13:21:47;;;;;;;2.05;0.82;;;4.00;83.00;;;;;;5032279;28;20088;-76
2023/01/17 13:24:54;;;;;;;3.67;0.80;;;4.00;82.30;;;;;;5033956;28;20033;-76
2023/01/17 13:27:54;;;;;;;10.30;1.00;;;3.80;82.00;;;;;;5022326;28;20464;-76
2023/01/17 13:30:54;;;;;;;4.85;1.08;;;3.80;82.40;;;;;;5029141;28;20029;-76
2023/01/17 13:33:53;;;;;;;7.07;0.90;;;3.70;81.70;;;;;;5030945;28;20401;-75
2023/01/17 13:36:28;;;;;;;1.17;0.60;;;3.60;82.40;;;;;;5032181;28;20033;-76
2023/01/17 13:39:09;;;;;;;4.25;0.68;;;3.60;82.70;;;;;;5033767;28;20108;-75
2023/01/17 13:41:52;;;;;;;5.13;1.10;;;3.60;82.70;;;;;;5032329;28;20087;-75
2023/01/17 13:44:26;;;;;;;1.65;0.63;;;3.60;83.50;;;;;;5028404;28;20095;-76
2023/01/17 13:47:16;;;;;;;1.38;0.60;;;3.50;82.90;;;;;;5032382;28;20040;-75
2023/01/17 13:49:46;;;;;;;3.30;0.93;;;3.40;83.80;;;;;;5028230;28;20056;-76
2023/01/17 13:52:17;;;;;;;3.30;0.70;;;3.40;82.70;;;;;;5031943;28;20021;-75
2023/01/17 13:54:59;;;;;;;3.30;0.80;;;3.40;82.70;;;;;;5031483;28;20099;-75
2023/01/17 13:57:25;;;;;;;2.60;0.98;;;3.30;82.40;;;;;;5032959;28;20148;-75
2023/01/17 13:59:51;;;;;;;3.67;0.88;;;3.40;82.70;;;;;;5033306;28;20171;-75
2023/01/17 14:02:32;;;;;;;3.92;0.93;;;3.40;82.50;;;;;;5031291;28;20037;-76
2023/01/17 14:05:20;;;;;;;6.93;1.08;;;3.60;81.00;;;;;;5030891;28;20081;-75
2023/01/17 14:07:56;;;;;;;2.47;0.90;;;3.60;81.50;;;;;;5031000;28;20034;-76
2023/01/17 14:10:25;;;;;;;3.58;0.85;;;3.60;81.40;;;;;;5031497;28;20084;-76
2023/01/17 14:12:50;;;;;;;4.18;0.98;;;3.60;80.90;;;;;;5022763;28;20038;-75
2023/01/17 14:15:25;;;;;;;1.65;0.90;;;3.50;80.20;;;;;;5031876;28;20363;-75
2023/01/17 14:17:57;;;;;;;2.72;0.70;;;3.40;81.00;;;;;;5024774;28;20037;-76
2023/01/17 14:20:28;;;;;;;2.30;0.73;;;3.40;81.60;;;;;;5029911;28;20045;-76
2023/01/17 14:22:56;;;;;;;3.92;0.75;;;3.60;80.60;;;;;;5023323;28;20103;-75
2023/01/17 14:25:28;;;;;;;6.20;0.75;;;3.90;80.70;;;;;;5032458;28;20420;-76
2023/01/17 14:27:59;;;;;;;3.58;0.80;;;4.10;78.80;;;;;;5030378;28;20112;-75
2023/01/17 14:30:33;;;;;;;;;;;4.10;79.30;;;;;;5018563;28;20037;-76
2023/01/17 14:33:02;;;;;;;1.20;0.70;;;4.30;78.70;;;;;;5027837;28;19909;-77
2023/01/17 14:35:49;;;;;;;4.47;0.90;;;4.20;77.90;;;;;;5018881;28;20610;-74
2023/01/17 14:38:21;;;;;;;1.85;0.85;;;4.00;78.80;;;;;;5030956;28;20041;-73
2023/01/17 14:40:55;;;;;;;2.67;0.63;;;3.70;80.60;;;;;;5028314;28;20028;-73
2023/01/17 14:43:24;;;;;;;2.40;0.65;;;3.50;81.30;;;;;;5028681;28;20030;-73
2023/01/17 14:46:00;;;;;;;2.90;0.70;;;3.30;82.50;;;;;;5030392;28;20025;-73
2023/01/17 14:48:27;;;;;;;2.63;0.85;;;3.10;83.50;;;;;;5031753;28;20037;-75